Terminal Aerodrome Forecast
Issued by NWS Louisville, KY

Home | Current Version | Previous Version | Text Only | Print | Product List | Glossary On
Versions: 1 2 3 4 5 6 7 8 9 10 11 12 13 14 15 16 17 18 19 20 21 22 23 24 25 26 27 28
000
FTUS43 KLMK 190527
TAFBWG
TAF
KBWG 190527Z 1906/2006 11006KT P6SM BKN035
     FM190800 14008KT 3SM -SHRA OVC025
     FM190900 15010KT 2SM SHRA VCTS OVC015CB
     FM191300 17013G20KT 2SM SHRA OVC012
     FM192000 24013KT 2SM SHRA OVC008
     FM192200 31011KT 5SM -SHRA BKN009
     FM200200 33020G30KT 3SM -SN OVC015=

USA.gov is the U.S. government's official web portal to all federal, state and local government web resources and services.